Decoded Metar for CYCY (CLYDE RIVER in NU, CANADA) (IATA:YCY) | Meteo·Mobile Aviation Weather
aviador You're here:

CYCY Decoded Metar

CLYDE RIVER in NU, CANADA
Report Time2019-01-18 11:28:00
UTC Time2019-01-18 11:53:23
Flight Rules lifr LIFR
Wind310° at 27 Gusting to 35 kt
W.Decomp.*RWY 02: 23.1 kt HW 13.9 kt LCW
W.Rank310° ranks 2
Current wind is above 310° avg. (13.9)
Visibility604 m
Phenomena:Blowing Snow
Snow
Clouds:N/A
Expected CloudBase > 400 ft AGL from Temp-Dew spread
Ceiling1,400 ft
Temp-21°C (ISA -36)
Dew Point-22°C (92% RH)
AAT-34.4°C
QNH1009 hPa
Density Alt-4,360 ft
Elevation85 ft
Report Wrong Elevation
Raw Report
SPECI CYCY 181128Z AUTO 31027G35KT 3/8SM SN BLSN VV014 M21/M22 A2981
RMK SLP099=

Extra information for CYCY:More info

Metar Taf Metar & Taf Last 4 Metars F.Rules Stats Wind Profile Meteogram Temp Stats Airport Information Weather charts Add Link Nearby VenuesMetar ALERT Operation Metar Decoded Social comments